createdAt,value
2022-08-26T00:00:52.078Z,79.06
2022-08-26T00:01:52.296Z,78.25
2022-08-26T00:02:52.467Z,78.91
2022-08-26T00:03:52.521Z,78.84
2022-08-26T00:04:52.627Z,76.67
2022-08-26T00:05:52.770Z,78.54
2022-08-26T00:06:52.917Z,79.21
2022-08-26T00:07:53.104Z,75.76
2022-08-26T00:08:53.186Z,72.91
2022-08-26T00:09:54.344Z,74.01
2022-08-26T00:10:53.516Z,75.76
2022-08-26T00:11:53.576Z,77.96
2022-08-26T00:12:53.717Z,80.43
2022-08-26T00:13:53.864Z,82.34
2022-08-26T00:14:53.986Z,82.67
2022-08-26T00:15:54.356Z,83.58
2022-08-26T00:16:55.199Z,84.42
2022-08-26T00:17:54.397Z,84.59
2022-08-26T00:18:54.697Z,84.85
2022-08-26T00:19:54.676Z,84.59
2022-08-26T00:20:54.846Z,84.17
2022-08-26T00:21:54.923Z,84.25
2022-08-26T00:22:55.054Z,83.91
2022-08-26T00:23:55.175Z,84.17
2022-08-26T00:24:55.456Z,84.17
2022-08-26T00:25:55.433Z,84.42
2022-08-26T00:26:55.588Z,85.03
2022-08-26T00:27:55.696Z,85.55
2022-08-26T00:28:55.825Z,84.77
2022-08-26T00:29:56.074Z,84.94
2022-08-26T00:30:56.254Z,84.85
2022-08-26T00:31:56.292Z,84.77
2022-08-26T00:32:56.392Z,84.42
2022-08-26T00:33:56.505Z,83.91
2022-08-26T00:34:56.704Z,83.75
2022-08-26T00:35:56.909Z,83.16
2022-08-26T00:36:56.918Z,82.75
2022-08-26T00:37:57.004Z,81.61
2022-08-26T00:38:57.134Z,81.22
2022-08-26T00:39:57.459Z,80.05
2022-08-26T00:40:57.399Z,80.13
2022-08-26T00:41:57.526Z,80.05
2022-08-26T00:42:57.633Z,80.67
2022-08-26T00:43:57.764Z,80.75
2022-08-26T00:44:57.953Z,78.91
2022-08-26T00:45:58.259Z,78.54
2022-08-26T00:46:58.187Z,76.04
2022-08-26T00:47:58.296Z,74.34
2022-08-26T00:48:58.432Z,75.21
2022-08-26T00:49:58.752Z,74.88
2022-08-26T00:50:58.682Z,75.62
2022-08-26T00:51:58.842Z,76.39
2022-08-26T00:52:58.958Z,76.60
2022-08-26T00:53:59.082Z,76.95
2022-08-26T00:54:59.291Z,76.60
2022-08-26T00:55:59.383Z,76.53
2022-08-26T00:56:59.874Z,76.60
2022-08-26T00:57:59.579Z,75.49
2022-08-26T00:58:59.713Z,75.08
2022-08-26T00:59:59.919Z,74.41
2022-08-26T01:00:59.998Z,74.81
2022-08-26T01:02:00.245Z,75.08
2022-08-26T01:03:00.210Z,75.15
2022-08-26T01:04:00.373Z,75.97
2022-08-26T01:05:00.568Z,75.90
2022-08-26T01:06:00.600Z,75.97
2022-08-26T01:07:00.815Z,75.76
2022-08-26T01:08:00.878Z,75.97
2022-08-26T01:09:00.980Z,75.01
2022-08-26T01:10:01.109Z,74.54
2022-08-26T01:11:01.229Z,73.95
2022-08-26T01:12:01.645Z,73.11
2022-08-26T01:13:01.571Z,72.41
2022-08-26T01:14:01.639Z,72.79
2022-08-26T01:15:01.779Z,72.10
2022-08-26T01:16:01.932Z,70.87
2022-08-26T01:17:02.158Z,70.99
2022-08-26T01:18:02.209Z,71.36
2022-08-26T01:19:02.302Z,70.99
2022-08-26T01:20:02.514Z,70.99
2022-08-26T01:21:02.566Z,71.60
2022-08-26T01:22:02.746Z,71.23
2022-08-26T01:23:03.150Z,70.87
2022-08-26T01:24:02.958Z,70.57
2022-08-26T01:25:03.461Z,70.63
2022-08-26T01:26:03.201Z,70.04
2022-08-26T01:27:03.387Z,69.34
2022-08-26T01:28:03.436Z,69.17
2022-08-26T01:29:03.566Z,68.26
2022-08-26T01:30:03.700Z,67.93
2022-08-26T01:31:03.837Z,68.26
2022-08-26T01:32:04.995Z,67.71
2022-08-26T01:33:04.114Z,67.82
2022-08-26T01:34:04.216Z,68.04
2022-08-26T01:35:04.336Z,67.76
2022-08-26T01:36:04.468Z,67.38
2022-08-26T01:37:04.646Z,66.57
2022-08-26T01:38:04.725Z,66.15
2022-08-26T01:39:05.905Z,65.73
2022-08-26T01:40:05.018Z,65.48
2022-08-26T01:41:15.997Z,65.17
2022-08-26T01:42:06.265Z,64.86
2022-08-26T01:43:05.521Z,64.46
2022-08-26T01:44:05.503Z,64.56
2022-08-26T01:45:05.635Z,64.46
2022-08-26T01:46:05.877Z,64.36
2022-08-26T01:47:06.550Z,63.63
2022-08-26T01:48:05.995Z,63.97
2022-08-26T01:49:06.452Z,64.02
2022-08-26T01:50:06.252Z,64.46
2022-08-26T01:51:06.624Z,64.36
2022-08-26T01:52:06.515Z,63.77
2022-08-26T01:53:06.909Z,63.53
2022-08-26T01:54:06.768Z,63.29
2022-08-26T01:55:07.914Z,62.96
2022-08-26T01:56:07.123Z,63.15
2022-08-26T01:57:07.256Z,63.19
2022-08-26T01:58:07.294Z,62.86
2022-08-26T01:59:07.423Z,62.53
2022-08-26T02:00:07.533Z,61.70
2022-08-26T02:01:07.704Z,61.52
2022-08-26T02:02:07.922Z,61.56
2022-08-26T02:03:08.124Z,61.34
2022-08-26T02:04:08.093Z,61.70
2022-08-26T02:05:08.204Z,62.34
2022-08-26T02:06:09.190Z,62.25
2022-08-26T02:07:08.530Z,61.97
2022-08-26T02:08:08.601Z,61.84
2022-08-26T02:09:08.820Z,61.65
2022-08-26T02:10:08.875Z,61.88
2022-08-26T02:11:08.994Z,62.11
2022-08-26T02:12:09.152Z,61.84
2022-08-26T02:13:09.262Z,61.97
2022-08-26T02:14:09.521Z,62.07
2022-08-26T02:15:09.521Z,61.52
2022-08-26T02:16:09.659Z,61.43
2022-08-26T02:17:09.761Z,61.25
2022-08-26T02:18:09.901Z,60.58
2022-08-26T02:19:10.093Z,60.36
2022-08-26T02:20:13.442Z,60.06
2022-08-26T02:21:10.290Z,60.45
2022-08-26T02:22:10.420Z,59.88
2022-08-26T02:23:10.735Z,60.80
2022-08-26T02:24:10.699Z,60.98
2022-08-26T02:25:10.830Z,60.45
2022-08-26T02:26:10.949Z,60.58
2022-08-26T02:27:11.069Z,61.02
2022-08-26T02:28:11.330Z,61.02
2022-08-26T02:29:11.349Z,61.34
2022-08-26T02:30:11.438Z,62.07
2022-08-26T02:31:11.593Z,62.30
2022-08-26T02:32:11.708Z,62.34
2022-08-26T02:33:12.010Z,62.58
2022-08-26T02:34:11.977Z,62.02
2022-08-26T02:35:12.107Z,62.07
2022-08-26T02:36:13.402Z,61.65
2022-08-26T02:37:12.358Z,61.29
2022-08-26T02:38:12.526Z,61.38
2022-08-26T02:39:15.017Z,61.47
2022-08-26T02:40:12.818Z,60.98
2022-08-26T02:41:12.897Z,61.07
2022-08-26T02:42:13.068Z,61.56
2022-08-26T02:43:13.217Z,61.70
2022-08-26T02:44:13.290Z,61.74
2022-08-26T02:45:13.415Z,61.65
2022-08-26T02:46:21.452Z,61.02
2022-08-26T02:47:14.806Z,60.93
2022-08-26T02:48:13.940Z,61.25
2022-08-26T02:49:13.918Z,61.56
2022-08-26T02:50:14.057Z,60.98
2022-08-26T02:51:14.186Z,61.11
2022-08-26T02:52:14.307Z,60.53
2022-08-26T02:53:14.597Z,60.36
2022-08-26T02:54:14.574Z,60.49
2022-08-26T02:55:14.717Z,60.58
2022-08-26T02:56:14.856Z,60.62
2022-08-26T02:57:14.986Z,60.62
2022-08-26T02:58:15.276Z,60.32
2022-08-26T02:59:15.382Z,59.84
2022-08-26T03:00:15.375Z,59.50
2022-08-26T03:01:15.560Z,59.08
2022-08-26T03:02:15.716Z,58.38
2022-08-26T03:03:15.863Z,58.09
2022-08-26T03:04:15.893Z,57.69
2022-08-26T03:05:16.043Z,57.53
2022-08-26T03:06:16.163Z,57.61
2022-08-26T03:07:16.307Z,57.57
2022-08-26T03:08:16.515Z,57.77
2022-08-26T03:09:18.905Z,57.37
2022-08-26T03:10:16.695Z,57.45
2022-08-26T03:11:16.832Z,57.33
2022-08-26T03:12:16.983Z,57.25
2022-08-26T03:13:17.236Z,56.98
2022-08-26T03:14:17.462Z,56.90
2022-08-26T03:15:18.367Z,56.90
2022-08-26T03:16:17.509Z,56.44
2022-08-26T03:17:17.603Z,56.63
2022-08-26T03:18:17.783Z,56.36
2022-08-26T03:19:17.993Z,56.29
2022-08-26T03:20:18.013Z,55.95
2022-08-26T03:21:18.103Z,55.76
2022-08-26T03:22:18.242Z,55.32
2022-08-26T03:23:18.601Z,55.58
2022-08-26T03:24:18.512Z,54.99
2022-08-26T03:25:18.610Z,55.10
2022-08-26T03:26:18.739Z,54.17
2022-08-26T03:27:18.869Z,54.45
2022-08-26T03:28:19.294Z,54.27
2022-08-26T03:29:19.174Z,54.56
2022-08-26T03:30:19.263Z,54.59
2022-08-26T03:31:19.445Z,54.49
2022-08-26T03:32:20.550Z,54.70
2022-08-26T03:33:19.660Z,54.42
2022-08-26T03:34:19.861Z,54.35
2022-08-26T03:35:19.956Z,54.20
2022-08-26T03:36:20.052Z,53.92
2022-08-26T03:37:20.197Z,53.96
2022-08-26T03:38:20.312Z,53.85
2022-08-26T03:39:20.469Z,54.27
2022-08-26T03:40:20.865Z,54.24
2022-08-26T03:41:20.709Z,54.56
2022-08-26T03:42:21.466Z,54.17
2022-08-26T03:43:20.969Z,54.31
2022-08-26T03:44:21.192Z,53.89
2022-08-26T03:45:21.261Z,53.68
2022-08-26T03:46:21.398Z,53.58
2022-08-26T03:47:21.487Z,54.17
2022-08-26T03:48:21.580Z,53.68
2022-08-26T03:49:21.818Z,53.92
2022-08-26T03:50:22.690Z,54.24
2022-08-26T03:51:21.968Z,54.10
2022-08-26T03:52:22.168Z,54.17
2022-08-26T03:53:22.208Z,54.17
2022-08-26T03:54:22.377Z,54.24
2022-08-26T03:55:23.775Z,54.52
2022-08-26T03:56:22.587Z,54.70
2022-08-26T03:57:22.735Z,54.77
2022-08-26T03:58:22.857Z,54.95
2022-08-26T03:59:23.067Z,54.81
2022-08-26T04:00:23.137Z,54.85
2022-08-26T04:01:23.272Z,54.67
2022-08-26T04:02:23.396Z,54.74
2022-08-26T04:03:23.589Z,54.59
2022-08-26T04:04:24.470Z,53.89
2022-08-26T04:05:23.923Z,53.85
2022-08-26T04:06:23.886Z,54.20
2022-08-26T04:07:24.008Z,54.24
2022-08-26T04:08:24.166Z,54.59
2022-08-26T04:09:24.464Z,54.59
2022-08-26T04:10:29.208Z,54.59
2022-08-26T04:11:25.525Z,54.74
2022-08-26T04:12:24.711Z,54.31
2022-08-26T04:13:24.794Z,54.70
2022-08-26T04:14:24.984Z,54.63
2022-08-26T04:15:25.133Z,54.92
2022-08-26T04:16:25.286Z,54.77
2022-08-26T04:17:25.336Z,54.88
2022-08-26T04:18:25.495Z,54.42
2022-08-26T04:19:26.852Z,54.17
2022-08-26T04:20:25.753Z,54.03
2022-08-26T04:21:25.853Z,54.42
2022-08-26T04:22:25.966Z,54.63
2022-08-26T04:23:26.107Z,54.38
2022-08-26T04:24:26.243Z,55.06
2022-08-26T04:25:26.503Z,55.65
2022-08-26T04:26:26.516Z,55.28
2022-08-26T04:27:26.629Z,55.43
2022-08-26T04:28:26.751Z,55.54
2022-08-26T04:29:26.865Z,55.91
2022-08-26T04:30:27.160Z,56.21
2022-08-26T04:31:27.184Z,56.56
2022-08-26T04:32:27.303Z,56.17
2022-08-26T04:33:32.256Z,55.76
2022-08-26T04:34:28.960Z,55.95
2022-08-26T04:35:27.850Z,56.02
2022-08-26T04:36:27.751Z,56.63
2022-08-26T04:37:27.912Z,56.94
2022-08-26T04:38:28.061Z,57.06
2022-08-26T04:39:28.095Z,57.57
2022-08-26T04:40:28.266Z,57.85
2022-08-26T04:41:28.332Z,57.57
2022-08-26T04:42:28.480Z,57.89
2022-08-26T04:43:28.789Z,57.21
2022-08-26T04:44:28.706Z,56.10
2022-08-26T04:45:28.839Z,55.32
2022-08-26T04:46:29.104Z,56.06
2022-08-26T04:47:32.215Z,56.67
2022-08-26T04:48:29.251Z,56.44
2022-08-26T04:49:29.329Z,56.86
2022-08-26T04:50:30.479Z,58.17
2022-08-26T04:51:29.601Z,58.66
2022-08-26T04:52:29.940Z,58.83
2022-08-26T04:53:29.879Z,58.99
2022-08-26T04:54:29.968Z,59.88
2022-08-26T04:55:38.715Z,59.97
2022-08-26T04:56:31.269Z,60.36
2022-08-26T04:57:30.530Z,59.84
2022-08-26T04:58:30.517Z,60.19
2022-08-26T04:59:30.659Z,60.58
2022-08-26T05:00:30.799Z,60.67
2022-08-26T05:01:30.974Z,60.32
2022-08-26T05:02:31.176Z,60.40
2022-08-26T05:03:31.338Z,60.10
2022-08-26T05:04:31.320Z,59.88
2022-08-26T05:05:31.457Z,59.63
2022-08-26T05:06:31.587Z,59.80
2022-08-26T05:07:32.747Z,60.01
2022-08-26T05:08:31.988Z,59.80
2022-08-26T05:09:32.008Z,58.79
2022-08-26T05:10:32.146Z,58.62
2022-08-26T05:11:32.287Z,58.46
2022-08-26T05:12:32.444Z,59.12
2022-08-26T05:13:32.738Z,58.99
2022-08-26T05:14:32.696Z,58.87
2022-08-26T05:15:32.796Z,59.16
2022-08-26T05:16:32.926Z,58.46
2022-08-26T05:17:33.087Z,57.53
2022-08-26T05:18:33.328Z,57.61
2022-08-26T05:19:33.449Z,58.46
2022-08-26T05:20:33.435Z,59.29
2022-08-26T05:21:33.535Z,60.23
2022-08-26T05:22:33.675Z,60.67
2022-08-26T05:23:33.936Z,60.58
2022-08-26T05:24:33.927Z,59.29
2022-08-26T05:25:34.079Z,59.04
2022-08-26T05:26:34.225Z,59.25
2022-08-26T05:27:34.345Z,59.63
2022-08-26T05:28:34.555Z,60.01
2022-08-26T05:29:34.625Z,61.07
2022-08-26T05:30:34.713Z,60.89
2022-08-26T05:31:34.905Z,60.36
2022-08-26T05:32:35.092Z,60.14
2022-08-26T05:33:35.159Z,59.33
2022-08-26T05:34:35.304Z,59.67
2022-08-26T05:35:35.364Z,60.01
2022-08-26T05:36:35.584Z,60.62
2022-08-26T05:37:35.644Z,60.89
2022-08-26T05:38:35.791Z,60.80
2022-08-26T05:39:36.124Z,60.76
2022-08-26T05:40:36.143Z,60.40
2022-08-26T05:41:38.470Z,60.10
2022-08-26T05:42:36.349Z,60.27
2022-08-26T05:43:36.453Z,60.14
2022-08-26T05:44:53.747Z,60.19
2022-08-26T05:45:39.439Z,60.06
2022-08-26T05:46:36.905Z,59.37
2022-08-26T05:47:36.973Z,59.37
2022-08-26T05:48:37.125Z,59.33
2022-08-26T05:49:37.402Z,59.08
2022-08-26T05:50:38.371Z,58.83
2022-08-26T05:51:37.521Z,57.93
2022-08-26T05:52:37.651Z,58.01
2022-08-26T05:53:37.742Z,58.01
2022-08-26T05:54:38.281Z,57.14
2022-08-26T05:55:38.021Z,57.41
2022-08-26T05:56:38.162Z,57.41
2022-08-26T05:57:42.839Z,57.02
2022-08-26T05:58:38.424Z,56.67
2022-08-26T05:59:38.572Z,56.02
2022-08-26T06:00:38.643Z,55.95
2022-08-26T06:01:38.823Z,55.76
2022-08-26T06:02:38.966Z,55.87
2022-08-26T06:03:39.043Z,55.61
2022-08-26T06:04:39.247Z,55.99
2022-08-26T06:05:39.488Z,56.56
2022-08-26T06:06:39.480Z,56.33
2022-08-26T06:07:39.590Z,56.21
2022-08-26T06:08:39.719Z,56.44
2022-08-26T06:09:39.930Z,56.48
2022-08-26T06:10:39.920Z,56.40
2022-08-26T06:11:40.067Z,56.21
2022-08-26T06:12:40.168Z,56.14
2022-08-26T06:13:40.300Z,55.87
2022-08-26T06:14:40.767Z,55.91
2022-08-26T06:15:42.032Z,55.72
2022-08-26T06:16:40.706Z,55.39
2022-08-26T06:17:40.858Z,54.27
2022-08-26T06:18:41.055Z,54.20
2022-08-26T06:19:41.345Z,53.96
2022-08-26T06:20:41.357Z,53.85
2022-08-26T06:21:41.332Z,53.44
2022-08-26T06:22:41.448Z,53.03
2022-08-26T06:23:41.569Z,53.82
2022-08-26T06:24:41.749Z,54.31
2022-08-26T06:25:41.827Z,54.45
2022-08-26T06:26:42.816Z,54.92
2022-08-26T06:27:42.197Z,55.10
2022-08-26T06:28:43.600Z,54.59
2022-08-26T06:29:42.316Z,54.35
2022-08-26T06:30:42.536Z,54.20
2022-08-26T06:31:42.598Z,54.45
2022-08-26T06:32:42.786Z,54.77
2022-08-26T06:33:42.851Z,55.24
2022-08-26T06:34:42.945Z,55.58
2022-08-26T06:35:43.077Z,54.99
2022-08-26T06:36:43.894Z,55.28
2022-08-26T06:37:43.475Z,55.43
2022-08-26T06:38:43.475Z,55.72
2022-08-26T06:39:43.515Z,56.21
2022-08-26T06:40:43.683Z,56.02
2022-08-26T06:41:43.824Z,55.58
2022-08-26T06:42:44.095Z,55.50
2022-08-26T06:43:44.164Z,55.43
2022-08-26T06:44:44.757Z,55.61
2022-08-26T06:45:44.282Z,55.35
2022-08-26T06:46:44.506Z,55.03
2022-08-26T06:47:44.781Z,54.67
2022-08-26T06:48:44.603Z,54.49
2022-08-26T06:49:44.713Z,54.10
2022-08-26T06:50:44.854Z,53.85
2022-08-26T06:51:44.983Z,53.75
2022-08-26T06:52:45.322Z,53.24
2022-08-26T06:53:45.394Z,53.30
2022-08-26T06:54:45.382Z,53.24
2022-08-26T06:55:45.520Z,53.10
2022-08-26T06:56:45.672Z,52.83
2022-08-26T06:57:45.774Z,53.54
2022-08-26T06:58:46.012Z,54.31
2022-08-26T06:59:46.031Z,55.06
2022-08-26T07:00:47.460Z,55.69
2022-08-26T07:01:46.349Z,55.58
2022-08-26T07:02:46.381Z,55.28
2022-08-26T07:03:46.747Z,55.61
2022-08-26T07:04:47.723Z,55.28
2022-08-26T07:05:46.771Z,55.06
2022-08-26T07:06:46.880Z,55.39
2022-08-26T07:07:47.044Z,56.48
2022-08-26T07:08:47.260Z,56.75
2022-08-26T07:09:47.380Z,57.37
2022-08-26T07:10:48.448Z,57.53
2022-08-26T07:11:47.512Z,57.57
2022-08-26T07:12:47.650Z,57.33
2022-08-26T07:13:47.801Z,56.86
2022-08-26T07:14:48.158Z,57.14
2022-08-26T07:15:48.139Z,57.61
2022-08-26T07:16:49.129Z,58.05
2022-08-26T07:17:48.230Z,58.74
2022-08-26T07:18:48.539Z,59.25
2022-08-26T07:19:48.468Z,59.33
2022-08-26T07:20:48.579Z,59.80
2022-08-26T07:21:48.679Z,60.01
2022-08-26T07:22:48.849Z,60.06
2022-08-26T07:23:49.156Z,59.41
2022-08-26T07:24:49.077Z,59.16
2022-08-26T07:25:49.248Z,58.79
2022-08-26T07:26:49.349Z,58.91
2022-08-26T07:27:53.890Z,59.41
2022-08-26T07:28:50.647Z,59.97
2022-08-26T07:29:49.738Z,60.23
2022-08-26T07:30:49.907Z,60.23
2022-08-26T07:31:49.978Z,60.62
2022-08-26T07:32:50.118Z,60.98
2022-08-26T07:33:50.327Z,61.11
2022-08-26T07:34:50.499Z,60.89
2022-08-26T07:35:50.489Z,59.93
2022-08-26T07:36:50.607Z,59.97
2022-08-26T07:37:55.074Z,60.19
2022-08-26T07:38:51.969Z,59.80
2022-08-26T07:39:51.034Z,59.80
2022-08-26T07:40:51.078Z,59.63
2022-08-26T07:41:51.219Z,59.80
2022-08-26T07:42:51.349Z,60.19
2022-08-26T07:43:51.448Z,60.36
2022-08-26T07:44:52.246Z,60.98
2022-08-26T07:45:51.682Z,61.07
2022-08-26T07:46:53.166Z,60.93
2022-08-26T07:47:51.953Z,60.93
2022-08-26T07:48:52.056Z,60.23
2022-08-26T07:49:52.826Z,60.76
2022-08-26T07:50:52.295Z,60.23
2022-08-26T07:51:52.382Z,60.53
2022-08-26T07:52:52.545Z,61.11
2022-08-26T07:53:53.158Z,61.70
2022-08-26T07:54:52.836Z,61.70
2022-08-26T07:55:52.874Z,61.88
2022-08-26T07:56:53.023Z,61.70
2022-08-26T07:57:53.138Z,61.34
2022-08-26T07:58:53.345Z,61.79
2022-08-26T07:59:54.062Z,62.07
2022-08-26T08:00:53.533Z,62.72
2022-08-26T08:01:53.702Z,62.72
2022-08-26T08:02:53.761Z,62.58
2022-08-26T08:03:53.874Z,63.05
2022-08-26T08:04:54.074Z,62.96
2022-08-26T08:05:54.113Z,63.92
2022-08-26T08:06:54.272Z,63.97
2022-08-26T08:07:54.383Z,64.56
2022-08-26T08:08:55.483Z,64.81
2022-08-26T08:09:54.848Z,65.17
2022-08-26T08:10:54.778Z,64.86
2022-08-26T08:11:54.864Z,65.22
2022-08-26T08:12:55.022Z,66.52
2022-08-26T08:13:56.425Z,67.05
2022-08-26T08:14:55.272Z,66.41
2022-08-26T08:15:55.409Z,66.52
2022-08-26T08:16:55.560Z,67.11
2022-08-26T08:17:58.854Z,68.32
2022-08-26T08:18:55.801Z,68.94
2022-08-26T08:19:55.932Z,69.22
2022-08-26T08:21:10.886Z,70.04
2022-08-26T08:21:57.190Z,70.69
2022-08-26T08:22:56.220Z,71.97
2022-08-26T08:23:56.334Z,73.56
2022-08-26T08:24:56.472Z,74.14
2022-08-26T08:25:56.590Z,74.94
2022-08-26T08:26:56.680Z,74.74
2022-08-26T08:27:57.032Z,74.34
2022-08-26T08:28:56.950Z,74.61
2022-08-26T08:29:57.043Z,74.61
2022-08-26T08:30:57.260Z,74.94
2022-08-26T08:31:58.115Z,75.08
2022-08-26T08:32:57.597Z,75.01
2022-08-26T08:33:57.558Z,75.01
2022-08-26T08:34:57.743Z,75.42
2022-08-26T08:35:57.834Z,75.56
2022-08-26T08:36:57.999Z,75.08
2022-08-26T08:37:58.210Z,75.97
2022-08-26T08:38:58.278Z,76.46
2022-08-26T08:39:58.340Z,77.09
2022-08-26T08:40:58.440Z,76.95
2022-08-26T08:41:58.649Z,76.32
2022-08-26T08:42:58.832Z,77.52
2022-08-26T08:43:58.818Z,77.52
2022-08-26T08:44:58.919Z,77.59
2022-08-26T08:45:59.867Z,77.88
2022-08-26T08:46:59.229Z,77.88
2022-08-26T08:47:59.497Z,78.32
2022-08-26T08:48:59.527Z,78.25
2022-08-26T08:49:59.636Z,79.90
2022-08-26T08:50:59.765Z,80.75
2022-08-26T08:51:59.897Z,81.38
2022-08-26T08:53:00.196Z,82.58
2022-08-26T08:54:00.146Z,84.08
2022-08-26T08:55:00.298Z,85.37
2022-08-26T08:56:00.459Z,85.37
2022-08-26T08:57:00.602Z,84.25
2022-08-26T08:58:02.432Z,83.08
2022-08-26T08:59:00.906Z,81.86
2022-08-26T09:00:00.967Z,81.61
2022-08-26T09:01:01.092Z,82.58
2022-08-26T09:02:01.255Z,83.41
2022-08-26T09:03:01.476Z,83.00
2022-08-26T09:04:01.475Z,83.16
2022-08-26T09:05:01.541Z,83.75
2022-08-26T09:06:01.642Z,82.58
2022-08-26T09:07:01.801Z,82.91
2022-08-26T09:08:01.987Z,82.91
2022-08-26T09:09:02.095Z,82.58
2022-08-26T09:10:02.224Z,82.75
2022-08-26T09:11:02.275Z,82.42
2022-08-26T09:12:02.374Z,83.33
2022-08-26T09:13:02.670Z,82.67
2022-08-26T09:14:02.614Z,82.18
2022-08-26T09:15:02.775Z,82.10
2022-08-26T09:16:02.864Z,81.61
2022-08-26T09:17:02.988Z,80.75
2022-08-26T09:18:05.760Z,80.75
2022-08-26T09:19:03.362Z,80.43
2022-08-26T09:20:03.364Z,80.67
2022-08-26T09:21:03.533Z,80.75
2022-08-26T09:22:08.770Z,81.30
2022-08-26T09:23:04.882Z,81.61
2022-08-26T09:24:04.102Z,82.18
2022-08-26T09:25:03.994Z,82.50
2022-08-26T09:26:04.107Z,82.50
2022-08-26T09:27:04.263Z,81.54
2022-08-26T09:28:04.453Z,80.20
2022-08-26T09:29:04.634Z,81.22
2022-08-26T09:30:04.640Z,80.51
2022-08-26T09:31:07.937Z,79.74
2022-08-26T09:32:05.883Z,79.82
2022-08-26T09:33:10.060Z,79.21
2022-08-26T09:34:06.242Z,79.74
2022-08-26T09:35:06.149Z,78.99
2022-08-26T09:36:05.341Z,79.90
2022-08-26T09:37:05.451Z,80.67
2022-08-26T09:38:07.022Z,80.98
2022-08-26T09:39:05.782Z,80.75
2022-08-26T09:40:05.839Z,79.51
2022-08-26T09:41:05.862Z,79.51
2022-08-26T09:42:06.012Z,78.99
2022-08-26T09:43:06.150Z,79.44
2022-08-26T09:44:06.332Z,79.67
2022-08-26T09:45:06.388Z,80.67
2022-08-26T09:46:06.690Z,81.06
2022-08-26T09:47:06.600Z,81.06
2022-08-26T09:48:06.757Z,81.30
2022-08-26T09:49:06.849Z,81.61
2022-08-26T09:50:09.942Z,81.46
2022-08-26T09:51:08.129Z,81.46
2022-08-26T09:52:07.219Z,81.54
2022-08-26T09:53:09.815Z,81.61
2022-08-26T09:54:08.469Z,81.06
2022-08-26T09:55:07.580Z,80.28
2022-08-26T09:56:07.798Z,79.59
2022-08-26T09:57:07.860Z,78.91
2022-08-26T09:58:08.915Z,78.32
2022-08-26T09:59:08.169Z,79.90
2022-08-26T10:00:08.229Z,80.75
2022-08-26T10:01:08.545Z,81.30
2022-08-26T10:02:12.226Z,81.46
2022-08-26T10:03:08.829Z,83.08
2022-08-26T10:04:08.812Z,83.49
2022-08-26T10:05:09.609Z,84.25
2022-08-26T10:06:09.073Z,84.85
2022-08-26T10:07:09.178Z,85.72
2022-08-26T10:08:09.307Z,85.55
2022-08-26T10:09:10.831Z,85.29
2022-08-26T10:10:09.561Z,85.81
2022-08-26T10:11:09.669Z,86.43
2022-08-26T10:12:09.979Z,86.52
2022-08-26T10:13:10.172Z,84.77
2022-08-26T10:14:09.997Z,85.81
2022-08-26T10:15:10.157Z,88.92
2022-08-26T10:16:10.774Z,90.46
2022-08-26T10:17:10.436Z,91.16
2022-08-26T10:18:10.719Z,92.78
2022-08-26T10:19:10.696Z,93.30
2022-08-26T10:20:23.269Z,95.32
2022-08-26T10:21:11.836Z,94.76
2022-08-26T10:22:10.997Z,95.08
2022-08-26T10:23:11.345Z,94.65
2022-08-26T10:24:11.499Z,95.03
2022-08-26T10:25:11.356Z,95.96
2022-08-26T10:26:11.466Z,96.74
2022-08-26T10:27:11.599Z,97.99
2022-08-26T10:28:11.881Z,98.80
2022-08-26T10:29:11.856Z,98.80
2022-08-26T10:30:11.925Z,98.22
2022-08-26T10:31:12.066Z,99.45
2022-08-26T10:32:13.726Z,99.27
2022-08-26T10:33:13.116Z,100.53
2022-08-26T10:34:13.989Z,99.93
2022-08-26T10:35:12.574Z,101.26
2022-08-26T10:36:15.323Z,102.44
2022-08-26T10:37:16.255Z,104.36
2022-08-26T10:38:12.918Z,105.55
2022-08-26T10:39:13.195Z,107.73
2022-08-26T10:40:13.259Z,108.71
2022-08-26T10:41:13.296Z,108.36
2022-08-26T10:42:13.416Z,106.02
2022-08-26T10:43:13.514Z,105.28
2022-08-26T10:44:13.674Z,106.15
2022-08-26T10:45:15.187Z,106.36
2022-08-26T10:46:13.896Z,103.14
2022-08-26T10:47:14.012Z,103.26
2022-08-26T10:48:14.173Z,103.58
2022-08-26T10:49:14.287Z,103.07
2022-08-26T10:50:14.531Z,103.14
2022-08-26T10:51:14.513Z,102.63
2022-08-26T10:52:16.440Z,102.75
2022-08-26T10:53:14.785Z,101.82
2022-08-26T10:54:14.893Z,101.82
2022-08-26T10:55:15.103Z,100.53
2022-08-26T10:56:15.901Z,99.93
2022-08-26T10:57:15.202Z,99.99
2022-08-26T10:58:26.536Z,99.04
2022-08-26T10:59:16.571Z,100.22
2022-08-26T11:00:15.562Z,99.39
2022-08-26T11:01:15.737Z,100.29
2022-08-26T11:02:15.829Z,100.17
2022-08-26T11:03:22.012Z,100.41
2022-08-26T11:04:17.179Z,99.51
2022-08-26T11:05:16.141Z,99.21
2022-08-26T11:06:16.282Z,98.68
2022-08-26T11:07:16.362Z,98.28
2022-08-26T11:08:17.281Z,97.99
2022-08-26T11:09:16.598Z,97.25
2022-08-26T11:10:16.740Z,96.51
2022-08-26T11:11:16.880Z,96.74
2022-08-26T11:12:16.998Z,95.90
2022-08-26T11:13:17.151Z,95.57
2022-08-26T11:14:17.459Z,95.14
2022-08-26T11:15:18.418Z,94.35
2022-08-26T11:16:17.556Z,93.82
2022-08-26T11:17:17.678Z,92.88
2022-08-26T11:18:17.899Z,91.36
2022-08-26T11:19:17.958Z,89.88
2022-08-26T11:20:19.035Z,90.46
2022-08-26T11:21:18.160Z,88.92
2022-08-26T11:22:19.300Z,89.69
2022-08-26T11:23:18.689Z,91.36
2022-08-26T11:24:18.569Z,92.99
2022-08-26T11:25:18.709Z,94.78
2022-08-26T11:26:32.795Z,94.49
2022-08-26T11:27:19.947Z,95.41
2022-08-26T11:28:19.256Z,95.54
2022-08-26T11:29:19.278Z,94.01
2022-08-26T11:30:19.347Z,95.57
2022-08-26T11:31:19.479Z,96.46
2022-08-26T11:32:19.528Z,98.05
2022-08-26T11:33:19.988Z,98.68
2022-08-26T11:34:19.808Z,99.33
2022-08-26T11:35:19.931Z,100.41
2022-08-26T11:36:20.068Z,102.00
2022-08-26T11:38:20.585Z,101.88
2022-08-26T11:39:20.487Z,101.82
2022-08-26T11:40:20.725Z,101.32
2022-08-26T11:41:20.976Z,101.57
2022-08-26T11:42:20.855Z,102.69
2022-08-26T11:43:21.097Z,103.71
2022-08-26T11:44:21.280Z,104.69
2022-08-26T11:45:21.306Z,106.22
2022-08-26T11:46:21.370Z,106.36
2022-08-26T11:47:21.559Z,106.02
2022-08-26T11:48:21.686Z,105.82
2022-08-26T11:49:21.760Z,105.68
2022-08-26T11:50:21.905Z,105.35
2022-08-26T11:51:22.149Z,106.36
2022-08-26T11:52:22.151Z,106.83
2022-08-26T11:53:22.257Z,106.63
2022-08-26T11:54:35.064Z,107.18
2022-08-26T11:55:24.090Z,107.18
2022-08-26T11:56:22.696Z,105.22
2022-08-26T11:57:22.771Z,104.23
2022-08-26T11:58:22.884Z,104.43
2022-08-26T11:59:23.016Z,107.45
2022-08-26T12:00:23.557Z,109.07
2022-08-26T12:01:23.410Z,111.77
2022-08-26T12:02:23.394Z,113.06
2022-08-26T12:03:23.607Z,114.06
2022-08-26T12:04:23.662Z,114.14
2022-08-26T12:05:23.765Z,116.05
2022-08-26T12:06:24.052Z,116.53
2022-08-26T12:07:24.447Z,117.35
2022-08-26T12:08:24.141Z,118.10
2022-08-26T12:09:24.218Z,116.45
2022-08-26T12:10:24.326Z,114.93
2022-08-26T12:11:25.515Z,116.29
2022-08-26T12:12:24.563Z,118.27
2022-08-26T12:13:25.089Z,119.71
2022-08-26T12:14:24.813Z,121.01
2022-08-26T12:15:24.961Z,120.14
2022-08-26T12:16:25.133Z,120.75
2022-08-26T12:17:25.302Z,119.79
2022-08-26T12:18:29.590Z,119.54
2022-08-26T12:19:25.482Z,119.54
2022-08-26T12:20:25.592Z,120.75
2022-08-26T12:21:25.703Z,123.34
2022-08-26T12:22:25.852Z,126.13
2022-08-26T12:23:25.960Z,127.78
2022-08-26T12:24:26.246Z,127.39
2022-08-26T12:25:26.189Z,128.46
2022-08-26T12:26:26.280Z,130.47
2022-08-26T12:27:26.401Z,131.71
2022-08-26T12:28:26.501Z,133.18
2022-08-26T12:29:27.362Z,134.04
2022-08-26T12:30:26.693Z,135.78
2022-08-26T12:31:26.856Z,136.11
2022-08-26T12:32:27.052Z,136.34
2022-08-26T12:33:27.253Z,137.35
2022-08-26T12:34:27.251Z,137.91
2022-08-26T12:35:27.351Z,138.60
2022-08-26T12:36:27.452Z,140.47
2022-08-26T12:37:27.731Z,139.64
2022-08-26T12:38:27.738Z,139.99
2022-08-26T12:39:27.830Z,140.70
2022-08-26T12:40:28.036Z,139.88
2022-08-26T12:41:28.110Z,139.88
2022-08-26T12:42:28.349Z,140.82
2022-08-26T12:43:28.479Z,140.59
2022-08-26T12:44:28.451Z,138.26
2022-08-26T12:45:28.636Z,137.57
2022-08-26T12:46:28.732Z,135.56
2022-08-26T12:47:35.122Z,133.29
2022-08-26T12:48:30.122Z,129.66
2022-08-26T12:49:29.062Z,123.43
2022-08-26T12:50:29.174Z,119.11
2022-08-26T12:51:29.278Z,115.40
2022-08-26T12:52:29.462Z,111.40